sensor_id;sensor_type;location;lat;lon;timestamp;temperature;humidity
25949;DHT22;13961;51.178;4.448;2024-02-14T00:00:06;10.00;99.90
25949;DHT22;13961;51.178;4.448;2024-02-14T00:02:35;10.00;99.90
25949;DHT22;13961;51.178;4.448;2024-02-14T00:05:01;10.00;99.90
25949;DHT22;13961;51.178;4.448;2024-02-14T00:07:28;10.00;99.90
25949;DHT22;13961;51.178;4.448;2024-02-14T00:09:54;10.00;99.90
25949;DHT22;13961;51.178;4.448;2024-02-14T00:12:20;10.00;99.90
25949;DHT22;13961;51.178;4.448;2024-02-14T00:14:45;10.00;99.90
25949;DHT22;13961;51.178;4.448;2024-02-14T00:17:11;10.10;99.90
25949;DHT22;13961;51.178;4.448;2024-02-14T00:19:37;10.10;99.90
25949;DHT22;13961;51.178;4.448;2024-02-14T00:22:03;10.20;99.90
25949;DHT22;13961;51.178;4.448;2024-02-14T00:24:29;10.20;99.90
25949;DHT22;13961;51.178;4.448;2024-02-14T00:26:55;10.20;99.90
25949;DHT22;13961;51.178;4.448;2024-02-14T00:29:22;10.20;99.90
25949;DHT22;13961;51.178;4.448;2024-02-14T00:31:48;10.20;99.90
25949;DHT22;13961;51.178;4.448;2024-02-14T00:34:14;10.30;99.90
25949;DHT22;13961;51.178;4.448;2024-02-14T00:36:39;10.20;99.90
25949;DHT22;13961;51.178;4.448;2024-02-14T00:39:05;10.30;99.90
25949;DHT22;13961;51.178;4.448;2024-02-14T00:41:34;10.30;99.90
25949;DHT22;13961;51.178;4.448;2024-02-14T00:44:01;10.40;99.90
25949;DHT22;13961;51.178;4.448;2024-02-14T00:46:26;10.20;99.90
25949;DHT22;13961;51.178;4.448;2024-02-14T00:48:53;10.30;99.90
25949;DHT22;13961;51.178;4.448;2024-02-14T00:51:20;10.30;99.90
25949;DHT22;13961;51.178;4.448;2024-02-14T00:53:46;10.30;99.90
25949;DHT22;13961;51.178;4.448;2024-02-14T00:56:12;10.30;99.90
25949;DHT22;13961;51.178;4.448;2024-02-14T00:58:37;10.40;99.90
25949;DHT22;13961;51.178;4.448;2024-02-14T01:01:03;10.50;99.90
25949;DHT22;13961;51.178;4.448;2024-02-14T01:03:29;10.40;99.90
25949;DHT22;13961;51.178;4.448;2024-02-14T01:05:55;10.40;99.90
25949;DHT22;13961;51.178;4.448;2024-02-14T01:08:20;10.40;99.90
25949;DHT22;13961;51.178;4.448;2024-02-14T01:10:46;10.30;99.90
25949;DHT22;13961;51.178;4.448;2024-02-14T01:13:12;10.40;99.90
25949;DHT22;13961;51.178;4.448;2024-02-14T01:15:38;10.20;99.90
25949;DHT22;13961;51.178;4.448;2024-02-14T01:18:03;10.30;99.90
25949;DHT22;13961;51.178;4.448;2024-02-14T01:20:29;10.20;99.90
25949;DHT22;13961;51.178;4.448;2024-02-14T01:22:55;10.30;99.90
25949;DHT22;13961;51.178;4.448;2024-02-14T01:25:20;10.20;99.90
25949;DHT22;13961;51.178;4.448;2024-02-14T01:27:46;10.20;99.90
25949;DHT22;13961;51.178;4.448;2024-02-14T01:30:13;10.20;99.90
25949;DHT22;13961;51.178;4.448;2024-02-14T01:32:40;10.20;99.90
25949;DHT22;13961;51.178;4.448;2024-02-14T01:35:06;10.20;99.90
25949;DHT22;13961;51.178;4.448;2024-02-14T01:37:31;10.20;99.90
25949;DHT22;13961;51.178;4.448;2024-02-14T01:39:58;10.40;99.90
25949;DHT22;13961;51.178;4.448;2024-02-14T01:42:23;10.20;99.90
25949;DHT22;13961;51.178;4.448;2024-02-14T01:44:49;10.20;99.90
25949;DHT22;13961;51.178;4.448;2024-02-14T01:47:15;10.30;99.90
25949;DHT22;13961;51.178;4.448;2024-02-14T01:49:41;10.40;99.90
25949;DHT22;13961;51.178;4.448;2024-02-14T01:52:10;10.30;99.90
25949;DHT22;13961;51.178;4.448;2024-02-14T01:54:36;10.40;99.90
25949;DHT22;13961;51.178;4.448;2024-02-14T01:57:02;10.40;99.90
25949;DHT22;13961;51.178;4.448;2024-02-14T01:59:28;10.50;99.90
25949;DHT22;13961;51.178;4.448;2024-02-14T02:01:54;10.50;99.90
25949;DHT22;13961;51.178;4.448;2024-02-14T02:04:21;10.50;99.90
25949;DHT22;13961;51.178;4.448;2024-02-14T02:06:47;10.50;99.90
25949;DHT22;13961;51.178;4.448;2024-02-14T02:09:12;10.30;99.90
25949;DHT22;13961;51.178;4.448;2024-02-14T02:11:51;10.30;99.90
25949;DHT22;13961;51.178;4.448;2024-02-14T02:14:19;10.40;99.90
25949;DHT22;13961;51.178;4.448;2024-02-14T02:16:46;10.40;99.90
25949;DHT22;13961;51.178;4.448;2024-02-14T02:19:12;10.40;99.90
25949;DHT22;13961;51.178;4.448;2024-02-14T02:21:38;10.40;99.90
25949;DHT22;13961;51.178;4.448;2024-02-14T02:24:04;10.50;99.90
25949;DHT22;13961;51.178;4.448;2024-02-14T02:26:30;10.50;99.90
25949;DHT22;13961;51.178;4.448;2024-02-14T02:28:56;10.50;99.90
25949;DHT22;13961;51.178;4.448;2024-02-14T02:31:21;10.50;99.90
25949;DHT22;13961;51.178;4.448;2024-02-14T02:33:47;10.70;99.90
25949;DHT22;13961;51.178;4.448;2024-02-14T02:36:13;10.50;99.90
25949;DHT22;13961;51.178;4.448;2024-02-14T02:38:38;10.50;99.90
25949;DHT22;13961;51.178;4.448;2024-02-14T02:41:04;10.50;99.90
25949;DHT22;13961;51.178;4.448;2024-02-14T02:43:33;10.70;99.90
25949;DHT22;13961;51.178;4.448;2024-02-14T02:45:59;10.60;99.90
25949;DHT22;13961;51.178;4.448;2024-02-14T02:48:25;10.70;99.90
25949;DHT22;13961;51.178;4.448;2024-02-14T02:50:51;10.60;99.90
25949;DHT22;13961;51.178;4.448;2024-02-14T02:53:18;10.70;99.90
25949;DHT22;13961;51.178;4.448;2024-02-14T02:55:44;10.80;99.90
25949;DHT22;13961;51.178;4.448;2024-02-14T02:58:11;10.70;99.90
25949;DHT22;13961;51.178;4.448;2024-02-14T03:00:37;10.70;99.90
25949;DHT22;13961;51.178;4.448;2024-02-14T03:03:02;10.80;99.90
25949;DHT22;13961;51.178;4.448;2024-02-14T03:05:30;10.80;99.90
25949;DHT22;13961;51.178;4.448;2024-02-14T03:07:58;10.60;99.90
25949;DHT22;13961;51.178;4.448;2024-02-14T03:10:25;10.60;99.90
25949;DHT22;13961;51.178;4.448;2024-02-14T03:12:51;10.60;99.90
25949;DHT22;13961;51.178;4.448;2024-02-14T03:15:17;10.80;99.90
25949;DHT22;13961;51.178;4.448;2024-02-14T03:17:44;10.70;99.90
25949;DHT22;13961;51.178;4.448;2024-02-14T03:20:11;10.70;99.90
25949;DHT22;13961;51.178;4.448;2024-02-14T03:22:39;10.70;99.90
25949;DHT22;13961;51.178;4.448;2024-02-14T03:25:08;10.60;99.90
25949;DHT22;13961;51.178;4.448;2024-02-14T03:27:35;10.60;99.90
25949;DHT22;13961;51.178;4.448;2024-02-14T03:30:00;10.70;99.90
25949;DHT22;13961;51.178;4.448;2024-02-14T03:32:29;10.60;99.90
25949;DHT22;13961;51.178;4.448;2024-02-14T03:34:55;10.70;99.90
25949;DHT22;13961;51.178;4.448;2024-02-14T03:37:20;10.70;99.90
25949;DHT22;13961;51.178;4.448;2024-02-14T03:39:46;10.80;99.90
25949;DHT22;13961;51.178;4.448;2024-02-14T03:42:12;10.60;99.90
25949;DHT22;13961;51.178;4.448;2024-02-14T03:44:38;10.70;99.90
25949;DHT22;13961;51.178;4.448;2024-02-14T03:47:04;10.70;99.90
25949;DHT22;13961;51.178;4.448;2024-02-14T03:49:29;10.60;99.90
25949;DHT22;13961;51.178;4.448;2024-02-14T03:51:56;10.70;99.90
25949;DHT22;13961;51.178;4.448;2024-02-14T03:54:22;10.70;99.90
25949;DHT22;13961;51.178;4.448;2024-02-14T03:56:49;10.80;99.90
25949;DHT22;13961;51.178;4.448;2024-02-14T03:59:14;10.80;99.90
25949;DHT22;13961;51.178;4.448;2024-02-14T04:01:46;10.80;99.90
25949;DHT22;13961;51.178;4.448;2024-02-14T04:04:12;10.80;99.90
25949;DHT22;13961;51.178;4.448;2024-02-14T04:06:38;10.80;99.90
25949;DHT22;13961;51.178;4.448;2024-02-14T04:09:03;10.70;99.90
25949;DHT22;13961;51.178;4.448;2024-02-14T04:11:29;10.60;99.90
25949;DHT22;13961;51.178;4.448;2024-02-14T04:13:55;10.70;99.90
25949;DHT22;13961;51.178;4.448;2024-02-14T04:16:21;10.70;99.90
25949;DHT22;13961;51.178;4.448;2024-02-14T04:18:49;10.50;99.90
25949;DHT22;13961;51.178;4.448;2024-02-14T04:21:14;10.80;99.90
25949;DHT22;13961;51.178;4.448;2024-02-14T04:23:41;10.80;99.90
25949;DHT22;13961;51.178;4.448;2024-02-14T04:26:06;10.70;99.90
25949;DHT22;13961;51.178;4.448;2024-02-14T04:28:33;10.80;99.90
25949;DHT22;13961;51.178;4.448;2024-02-14T04:30:59;10.80;99.90
25949;DHT22;13961;51.178;4.448;2024-02-14T04:33:24;10.70;99.90
25949;DHT22;13961;51.178;4.448;2024-02-14T04:35:50;10.70;99.90
25949;DHT22;13961;51.178;4.448;2024-02-14T04:38:16;10.70;99.90
25949;DHT22;13961;51.178;4.448;2024-02-14T04:40:43;10.70;99.90
25949;DHT22;13961;51.178;4.448;2024-02-14T04:43:09;10.60;99.90
25949;DHT22;13961;51.178;4.448;2024-02-14T04:45:35;10.70;99.90
25949;DHT22;13961;51.178;4.448;2024-02-14T04:48:01;10.70;99.90
25949;DHT22;13961;51.178;4.448;2024-02-14T04:50:27;10.80;99.90
25949;DHT22;13961;51.178;4.448;2024-02-14T04:52:52;10.80;99.90
25949;DHT22;13961;51.178;4.448;2024-02-14T04:55:18;10.90;99.90
25949;DHT22;13961;51.178;4.448;2024-02-14T04:57:44;10.90;99.90
25949;DHT22;13961;51.178;4.448;2024-02-14T05:00:10;10.80;99.90
25949;DHT22;13961;51.178;4.448;2024-02-14T05:02:36;10.90;99.90
25949;DHT22;13961;51.178;4.448;2024-02-14T05:05:02;10.90;99.90
25949;DHT22;13961;51.178;4.448;2024-02-14T05:07:28;10.90;99.90
25949;DHT22;13961;51.178;4.448;2024-02-14T05:09:54;10.80;99.90
25949;DHT22;13961;51.178;4.448;2024-02-14T05:12:22;10.90;99.90
25949;DHT22;13961;51.178;4.448;2024-02-14T05:14:47;10.80;99.90
25949;DHT22;13961;51.178;4.448;2024-02-14T05:17:14;10.80;99.90
25949;DHT22;13961;51.178;4.448;2024-02-14T05:19:42;10.80;99.90
25949;DHT22;13961;51.178;4.448;2024-02-14T05:22:08;10.80;99.90
25949;DHT22;13961;51.178;4.448;2024-02-14T05:24:33;10.80;99.90
25949;DHT22;13961;51.178;4.448;2024-02-14T05:27:01;10.90;99.90
25949;DHT22;13961;51.178;4.448;2024-02-14T05:29:27;10.90;99.90
25949;DHT22;13961;51.178;4.448;2024-02-14T05:31:52;11.00;99.90
25949;DHT22;13961;51.178;4.448;2024-02-14T05:34:20;11.00;99.90
25949;DHT22;13961;51.178;4.448;2024-02-14T05:36:46;11.00;99.90
25949;DHT22;13961;51.178;4.448;2024-02-14T05:39:12;10.90;99.90
25949;DHT22;13961;51.178;4.448;2024-02-14T05:41:39;11.00;99.90
25949;DHT22;13961;51.178;4.448;2024-02-14T05:44:05;11.10;99.90
25949;DHT22;13961;51.178;4.448;2024-02-14T05:46:31;11.10;99.90
25949;DHT22;13961;51.178;4.448;2024-02-14T05:48:56;11.20;99.90
25949;DHT22;13961;51.178;4.448;2024-02-14T05:51:23;11.20;99.90
25949;DHT22;13961;51.178;4.448;2024-02-14T05:53:48;11.30;99.90
25949;DHT22;13961;51.178;4.448;2024-02-14T05:56:14;11.30;99.90
25949;DHT22;13961;51.178;4.448;2024-02-14T05:58:40;11.20;99.90
25949;DHT22;13961;51.178;4.448;2024-02-14T06:01:05;11.20;99.90
25949;DHT22;13961;51.178;4.448;2024-02-14T06:03:31;11.20;99.90
25949;DHT22;13961;51.178;4.448;2024-02-14T06:05:57;11.20;99.90
25949;DHT22;13961;51.178;4.448;2024-02-14T06:08:23;11.10;99.90
25949;DHT22;13961;51.178;4.448;2024-02-14T06:10:52;11.10;99.90
25949;DHT22;13961;51.178;4.448;2024-02-14T06:13:18;11.10;99.90
25949;DHT22;13961;51.178;4.448;2024-02-14T06:15:44;11.10;99.90
25949;DHT22;13961;51.178;4.448;2024-02-14T06:18:11;11.30;99.90
25949;DHT22;13961;51.178;4.448;2024-02-14T06:20:36;11.30;99.90
25949;DHT22;13961;51.178;4.448;2024-02-14T06:23:04;11.40;99.90
25949;DHT22;13961;51.178;4.448;2024-02-14T06:25:30;11.40;99.90
25949;DHT22;13961;51.178;4.448;2024-02-14T06:27:55;11.30;99.90
25949;DHT22;13961;51.178;4.448;2024-02-14T06:30:21;11.30;99.90
25949;DHT22;13961;51.178;4.448;2024-02-14T06:32:47;11.20;99.90
25949;DHT22;13961;51.178;4.448;2024-02-14T06:35:12;11.20;99.90
25949;DHT22;13961;51.178;4.448;2024-02-14T06:37:40;11.20;99.90
25949;DHT22;13961;51.178;4.448;2024-02-14T06:40:06;11.20;99.90
25949;DHT22;13961;51.178;4.448;2024-02-14T06:42:34;11.20;99.90
25949;DHT22;13961;51.178;4.448;2024-02-14T06:44:59;11.40;99.90
25949;DHT22;13961;51.178;4.448;2024-02-14T06:47:25;11.50;99.90
25949;DHT22;13961;51.178;4.448;2024-02-14T06:49:55;11.40;99.90
25949;DHT22;13961;51.178;4.448;2024-02-14T06:52:21;11.50;99.90
25949;DHT22;13961;51.178;4.448;2024-02-14T06:54:46;11.30;99.90
25949;DHT22;13961;51.178;4.448;2024-02-14T06:57:13;11.40;99.90
25949;DHT22;13961;51.178;4.448;2024-02-14T06:59:39;11.30;99.90
25949;DHT22;13961;51.178;4.448;2024-02-14T07:02:05;11.30;99.90
25949;DHT22;13961;51.178;4.448;2024-02-14T07:04:32;11.30;99.90
25949;DHT22;13961;51.178;4.448;2024-02-14T07:06:58;11.20;99.90
25949;DHT22;13961;51.178;4.448;2024-02-14T07:09:23;11.20;99.90
25949;DHT22;13961;51.178;4.448;2024-02-14T07:11:51;11.40;99.90
25949;DHT22;13961;51.178;4.448;2024-02-14T07:14:19;11.40;99.90
25949;DHT22;13961;51.178;4.448;2024-02-14T07:16:44;11.40;99.90
25949;DHT22;13961;51.178;4.448;2024-02-14T07:19:10;11.40;99.90
25949;DHT22;13961;51.178;4.448;2024-02-14T07:21:36;11.30;99.90
25949;DHT22;13961;51.178;4.448;2024-02-14T07:24:04;11.40;99.90
25949;DHT22;13961;51.178;4.448;2024-02-14T07:26:30;11.50;99.90
25949;DHT22;13961;51.178;4.448;2024-02-14T07:28:56;11.50;99.90
25949;DHT22;13961;51.178;4.448;2024-02-14T07:31:21;11.30;99.90
25949;DHT22;13961;51.178;4.448;2024-02-14T07:33:47;11.40;99.90
25949;DHT22;13961;51.178;4.448;2024-02-14T07:36:14;11.50;99.90
25949;DHT22;13961;51.178;4.448;2024-02-14T07:38:39;11.50;99.90
25949;DHT22;13961;51.178;4.448;2024-02-14T07:41:08;11.50;99.90
25949;DHT22;13961;51.178;4.448;2024-02-14T07:43:33;11.50;99.90
25949;DHT22;13961;51.178;4.448;2024-02-14T07:45:59;11.60;99.90
25949;DHT22;13961;51.178;4.448;2024-02-14T07:48:25;11.70;99.90
25949;DHT22;13961;51.178;4.448;2024-02-14T07:50:50;11.80;99.90
25949;DHT22;13961;51.178;4.448;2024-02-14T07:53:16;11.70;99.90
25949;DHT22;13961;51.178;4.448;2024-02-14T07:55:41;11.70;99.90
25949;DHT22;13961;51.178;4.448;2024-02-14T07:58:07;11.70;99.90
25949;DHT22;13961;51.178;4.448;2024-02-14T08:00:33;11.70;99.90
25949;DHT22;13961;51.178;4.448;2024-02-14T08:02:58;11.70;99.90
25949;DHT22;13961;51.178;4.448;2024-02-14T08:05:24;11.70;99.90
25949;DHT22;13961;51.178;4.448;2024-02-14T08:07:50;11.60;99.90
25949;DHT22;13961;51.178;4.448;2024-02-14T08:10:16;11.60;99.90
25949;DHT22;13961;51.178;4.448;2024-02-14T08:12:42;11.70;99.90
25949;DHT22;13961;51.178;4.448;2024-02-14T08:15:08;11.80;99.90
25949;DHT22;13961;51.178;4.448;2024-02-14T08:17:34;11.80;99.90
25949;DHT22;13961;51.178;4.448;2024-02-14T08:20:01;11.70;99.90
25949;DHT22;13961;51.178;4.448;2024-02-14T08:22:26;11.80;99.90
25949;DHT22;13961;51.178;4.448;2024-02-14T08:24:52;11.90;99.90
25949;DHT22;13961;51.178;4.448;2024-02-14T08:27:18;11.90;99.90
25949;DHT22;13961;51.178;4.448;2024-02-14T08:29:44;11.80;99.90
25949;DHT22;13961;51.178;4.448;2024-02-14T08:32:09;12.00;99.90
25949;DHT22;13961;51.178;4.448;2024-02-14T08:34:35;12.00;99.90
25949;DHT22;13961;51.178;4.448;2024-02-14T08:37:00;12.10;99.90
25949;DHT22;13961;51.178;4.448;2024-02-14T08:39:26;12.10;99.90
25949;DHT22;13961;51.178;4.448;2024-02-14T08:41:51;12.10;99.90
25949;DHT22;13961;51.178;4.448;2024-02-14T08:44:18;12.10;99.90
25949;DHT22;13961;51.178;4.448;2024-02-14T08:46:43;12.10;99.90
25949;DHT22;13961;51.178;4.448;2024-02-14T08:49:13;12.10;99.90
25949;DHT22;13961;51.178;4.448;2024-02-14T08:51:39;12.10;99.90
25949;DHT22;13961;51.178;4.448;2024-02-14T08:54:05;12.10;99.90
25949;DHT22;13961;51.178;4.448;2024-02-14T08:56:34;12.20;99.90
25949;DHT22;13961;51.178;4.448;2024-02-14T08:59:02;12.30;99.90
25949;DHT22;13961;51.178;4.448;2024-02-14T09:01:30;12.30;99.90
25949;DHT22;13961;51.178;4.448;2024-02-14T09:03:56;12.20;99.90
25949;DHT22;13961;51.178;4.448;2024-02-14T09:06:22;12.20;99.90
25949;DHT22;13961;51.178;4.448;2024-02-14T09:08:48;12.30;99.90
25949;DHT22;13961;51.178;4.448;2024-02-14T09:11:16;12.20;99.90
25949;DHT22;13961;51.178;4.448;2024-02-14T09:13:41;12.40;99.90
25949;DHT22;13961;51.178;4.448;2024-02-14T09:16:08;12.40;99.90
25949;DHT22;13961;51.178;4.448;2024-02-14T09:18:34;12.30;99.90
25949;DHT22;13961;51.178;4.448;2024-02-14T09:21:01;12.30;99.90
25949;DHT22;13961;51.178;4.448;2024-02-14T09:23:29;12.30;99.90
25949;DHT22;13961;51.178;4.448;2024-02-14T09:25:55;12.30;99.90
25949;DHT22;13961;51.178;4.448;2024-02-14T09:28:22;12.30;99.90
25949;DHT22;13961;51.178;4.448;2024-02-14T09:30:48;12.30;99.90
25949;DHT22;13961;51.178;4.448;2024-02-14T09:33:14;12.30;99.90
25949;DHT22;13961;51.178;4.448;2024-02-14T09:35:39;12.30;99.90
25949;DHT22;13961;51.178;4.448;2024-02-14T09:38:10;12.20;99.90
25949;DHT22;13961;51.178;4.448;2024-02-14T09:40:36;12.40;99.90
25949;DHT22;13961;51.178;4.448;2024-02-14T09:43:05;12.40;99.90
25949;DHT22;13961;51.178;4.448;2024-02-14T09:45:31;12.40;99.90
25949;DHT22;13961;51.178;4.448;2024-02-14T09:47:59;12.30;99.90
25949;DHT22;13961;51.178;4.448;2024-02-14T09:50:26;12.20;99.90
25949;DHT22;13961;51.178;4.448;2024-02-14T09:52:56;12.30;99.90
25949;DHT22;13961;51.178;4.448;2024-02-14T09:55:23;12.40;99.90
25949;DHT22;13961;51.178;4.448;2024-02-14T09:57:50;12.60;99.90
25949;DHT22;13961;51.178;4.448;2024-02-14T10:00:17;12.60;99.90
25949;DHT22;13961;51.178;4.448;2024-02-14T10:02:43;12.60;99.90
25949;DHT22;13961;51.178;4.448;2024-02-14T10:05:08;12.60;99.90
25949;DHT22;13961;51.178;4.448;2024-02-14T10:07:44;12.50;99.90
25949;DHT22;13961;51.178;4.448;2024-02-14T10:10:10;12.40;99.90
25949;DHT22;13961;51.178;4.448;2024-02-14T10:12:36;12.50;99.90
25949;DHT22;13961;51.178;4.448;2024-02-14T10:15:02;12.50;99.90
25949;DHT22;13961;51.178;4.448;2024-02-14T10:17:29;12.50;99.90
25949;DHT22;13961;51.178;4.448;2024-02-14T10:19:59;12.50;99.90
25949;DHT22;13961;51.178;4.448;2024-02-14T10:22:31;12.50;99.90
25949;DHT22;13961;51.178;4.448;2024-02-14T10:24:57;12.50;99.90
25949;DHT22;13961;51.178;4.448;2024-02-14T10:27:23;12.60;99.90
25949;DHT22;13961;51.178;4.448;2024-02-14T10:29:48;12.70;99.90
25949;DHT22;13961;51.178;4.448;2024-02-14T10:32:17;12.80;99.90
25949;DHT22;13961;51.178;4.448;2024-02-14T10:34:44;12.90;99.90
25949;DHT22;13961;51.178;4.448;2024-02-14T10:37:13;12.90;99.90
25949;DHT22;13961;51.178;4.448;2024-02-14T10:39:41;12.80;99.90
25949;DHT22;13961;51.178;4.448;2024-02-14T10:42:07;12.70;99.90
25949;DHT22;13961;51.178;4.448;2024-02-14T10:44:32;12.70;99.90
25949;DHT22;13961;51.178;4.448;2024-02-14T10:47:00;12.80;99.90
25949;DHT22;13961;51.178;4.448;2024-02-14T10:49:29;12.80;99.90
25949;DHT22;13961;51.178;4.448;2024-02-14T10:51:56;12.90;99.90
25949;DHT22;13961;51.178;4.448;2024-02-14T10:54:25;12.80;99.90
25949;DHT22;13961;51.178;4.448;2024-02-14T10:56:53;12.90;99.90
25949;DHT22;13961;51.178;4.448;2024-02-14T10:59:21;12.80;99.90
25949;DHT22;13961;51.178;4.448;2024-02-14T11:01:48;12.80;99.90
25949;DHT22;13961;51.178;4.448;2024-02-14T11:04:14;12.70;99.90
25949;DHT22;13961;51.178;4.448;2024-02-14T11:06:47;12.70;99.90
25949;DHT22;13961;51.178;4.448;2024-02-14T11:09:14;12.90;99.90
25949;DHT22;13961;51.178;4.448;2024-02-14T11:11:44;12.90;99.90
25949;DHT22;13961;51.178;4.448;2024-02-14T11:14:10;12.90;99.90
25949;DHT22;13961;51.178;4.448;2024-02-14T11:16:38;12.80;99.90
25949;DHT22;13961;51.178;4.448;2024-02-14T11:19:11;12.70;99.90
25949;DHT22;13961;51.178;4.448;2024-02-14T11:21:37;12.70;99.90
25949;DHT22;13961;51.178;4.448;2024-02-14T11:24:07;12.70;99.90
25949;DHT22;13961;51.178;4.448;2024-02-14T11:26:40;12.50;99.90
25949;DHT22;13961;51.178;4.448;2024-02-14T11:29:14;12.50;99.90
25949;DHT22;13961;51.178;4.448;2024-02-14T11:31:41;12.60;99.90
25949;DHT22;13961;51.178;4.448;2024-02-14T11:34:08;12.50;99.90
25949;DHT22;13961;51.178;4.448;2024-02-14T11:36:36;12.60;99.90
25949;DHT22;13961;51.178;4.448;2024-02-14T11:39:05;12.60;99.90
25949;DHT22;13961;51.178;4.448;2024-02-14T11:41:36;12.60;99.90
25949;DHT22;13961;51.178;4.448;2024-02-14T11:44:04;12.60;99.90
25949;DHT22;13961;51.178;4.448;2024-02-14T11:46:36;12.60;99.90
25949;DHT22;13961;51.178;4.448;2024-02-14T11:49:03;12.70;99.90
25949;DHT22;13961;51.178;4.448;2024-02-14T11:51:30;12.70;99.90
25949;DHT22;13961;51.178;4.448;2024-02-14T11:54:00;12.70;99.90
25949;DHT22;13961;51.178;4.448;2024-02-14T11:56:35;12.70;99.90
25949;DHT22;13961;51.178;4.448;2024-02-14T11:59:05;12.70;99.90
25949;DHT22;13961;51.178;4.448;2024-02-14T12:01:33;12.70;99.90
25949;DHT22;13961;51.178;4.448;2024-02-14T12:04:00;12.80;99.90
25949;DHT22;13961;51.178;4.448;2024-02-14T12:06:30;12.90;99.90
25949;DHT22;13961;51.178;4.448;2024-02-14T12:08:58;12.90;99.90
25949;DHT22;13961;51.178;4.448;2024-02-14T12:11:33;12.90;99.90
25949;DHT22;13961;51.178;4.448;2024-02-14T12:14:02;12.90;99.90
25949;DHT22;13961;51.178;4.448;2024-02-14T12:16:30;12.90;99.90
25949;DHT22;13961;51.178;4.448;2024-02-14T12:19:23;13.00;99.90
25949;DHT22;13961;51.178;4.448;2024-02-14T12:21:49;13.00;99.90
25949;DHT22;13961;51.178;4.448;2024-02-14T12:24:15;13.10;99.90
25949;DHT22;13961;51.178;4.448;2024-02-14T12:26:41;13.10;99.90
25949;DHT22;13961;51.178;4.448;2024-02-14T12:29:08;13.10;99.90
25949;DHT22;13961;51.178;4.448;2024-02-14T12:31:34;13.20;99.90
25949;DHT22;13961;51.178;4.448;2024-02-14T12:34:00;13.30;99.90
25949;DHT22;13961;51.178;4.448;2024-02-14T12:36:34;13.30;99.90
25949;DHT22;13961;51.178;4.448;2024-02-14T12:39:00;13.40;99.90
25949;DHT22;13961;51.178;4.448;2024-02-14T12:41:30;13.40;99.90
25949;DHT22;13961;51.178;4.448;2024-02-14T12:43:56;13.30;99.90
25949;DHT22;13961;51.178;4.448;2024-02-14T12:46:22;13.20;99.90
25949;DHT22;13961;51.178;4.448;2024-02-14T12:48:48;13.30;99.90
25949;DHT22;13961;51.178;4.448;2024-02-14T12:51:14;13.30;99.90
25949;DHT22;13961;51.178;4.448;2024-02-14T12:53:40;13.30;99.90
25949;DHT22;13961;51.178;4.448;2024-02-14T12:56:06;13.20;99.90
25949;DHT22;13961;51.178;4.448;2024-02-14T12:58:32;13.20;99.90
25949;DHT22;13961;51.178;4.448;2024-02-14T13:00:58;13.20;99.90
25949;DHT22;13961;51.178;4.448;2024-02-14T13:03:24;13.10;99.90
25949;DHT22;13961;51.178;4.448;2024-02-14T13:05:50;13.10;99.90
25949;DHT22;13961;51.178;4.448;2024-02-14T13:08:19;13.20;99.90
25949;DHT22;13961;51.178;4.448;2024-02-14T13:10:44;13.20;99.90
25949;DHT22;13961;51.178;4.448;2024-02-14T13:13:10;13.10;99.90
25949;DHT22;13961;51.178;4.448;2024-02-14T13:15:36;13.10;99.90
25949;DHT22;13961;51.178;4.448;2024-02-14T13:18:02;13.20;99.90
25949;DHT22;13961;51.178;4.448;2024-02-14T13:20:28;13.20;99.90
25949;DHT22;13961;51.178;4.448;2024-02-14T13:22:54;13.30;99.90
25949;DHT22;13961;51.178;4.448;2024-02-14T13:25:20;13.40;99.90
25949;DHT22;13961;51.178;4.448;2024-02-14T13:27:46;13.30;99.90
25949;DHT22;13961;51.178;4.448;2024-02-14T13:30:12;13.50;99.90
25949;DHT22;13961;51.178;4.448;2024-02-14T13:32:37;13.30;99.90
25949;DHT22;13961;51.178;4.448;2024-02-14T13:35:03;13.30;99.90
25949;DHT22;13961;51.178;4.448;2024-02-14T13:37:31;13.20;99.90
25949;DHT22;13961;51.178;4.448;2024-02-14T13:39:57;13.20;99.90
25949;DHT22;13961;51.178;4.448;2024-02-14T13:42:23;13.30;99.90
25949;DHT22;13961;51.178;4.448;2024-02-14T13:44:48;13.30;99.90
25949;DHT22;13961;51.178;4.448;2024-02-14T13:47:20;13.30;99.90
25949;DHT22;13961;51.178;4.448;2024-02-14T13:49:48;13.30;99.90
25949;DHT22;13961;51.178;4.448;2024-02-14T13:52:14;13.10;99.90
25949;DHT22;13961;51.178;4.448;2024-02-14T13:54:41;13.20;99.90
25949;DHT22;13961;51.178;4.448;2024-02-14T13:57:07;13.20;99.90
25949;DHT22;13961;51.178;4.448;2024-02-14T13:59:32;13.10;99.90
25949;DHT22;13961;51.178;4.448;2024-02-14T14:01:58;13.20;99.90
25949;DHT22;13961;51.178;4.448;2024-02-14T14:04:24;13.40;99.90
25949;DHT22;13961;51.178;4.448;2024-02-14T14:06:51;13.50;99.90
25949;DHT22;13961;51.178;4.448;2024-02-14T14:09:16;13.50;99.90
25949;DHT22;13961;51.178;4.448;2024-02-14T14:11:42;13.50;99.90
25949;DHT22;13961;51.178;4.448;2024-02-14T14:14:08;13.60;99.90
25949;DHT22;13961;51.178;4.448;2024-02-14T14:16:34;13.50;99.90
25949;DHT22;13961;51.178;4.448;2024-02-14T14:19:00;13.40;99.90
25949;DHT22;13961;51.178;4.448;2024-02-14T14:21:26;13.50;99.90
25949;DHT22;13961;51.178;4.448;2024-02-14T14:23:51;13.50;99.90
25949;DHT22;13961;51.178;4.448;2024-02-14T14:26:18;13.50;99.90
25949;DHT22;13961;51.178;4.448;2024-02-14T14:28:43;13.40;99.90
25949;DHT22;13961;51.178;4.448;2024-02-14T14:31:09;13.40;99.90
25949;DHT22;13961;51.178;4.448;2024-02-14T14:33:38;13.40;99.90
25949;DHT22;13961;51.178;4.448;2024-02-14T14:36:04;13.50;99.90
25949;DHT22;13961;51.178;4.448;2024-02-14T14:38:30;13.50;99.90
25949;DHT22;13961;51.178;4.448;2024-02-14T14:40:56;13.60;99.90
25949;DHT22;13961;51.178;4.448;2024-02-14T14:43:22;13.60;99.90
25949;DHT22;13961;51.178;4.448;2024-02-14T14:45:48;13.70;99.90
25949;DHT22;13961;51.178;4.448;2024-02-14T14:48:15;13.60;99.90
25949;DHT22;13961;51.178;4.448;2024-02-14T14:50:40;13.50;99.90
25949;DHT22;13961;51.178;4.448;2024-02-14T14:53:07;13.60;99.90
25949;DHT22;13961;51.178;4.448;2024-02-14T14:55:52;13.60;99.90
25949;DHT22;13961;51.178;4.448;2024-02-14T14:58:18;13.80;99.90
25949;DHT22;13961;51.178;4.448;2024-02-14T15:00:44;13.80;99.90
25949;DHT22;13961;51.178;4.448;2024-02-14T15:03:10;13.70;99.90
25949;DHT22;13961;51.178;4.448;2024-02-14T15:05:39;13.70;99.90
25949;DHT22;13961;51.178;4.448;2024-02-14T15:08:06;13.70;99.90
25949;DHT22;13961;51.178;4.448;2024-02-14T15:10:36;13.70;99.90
25949;DHT22;13961;51.178;4.448;2024-02-14T15:13:08;13.70;99.90
25949;DHT22;13961;51.178;4.448;2024-02-14T15:15:35;13.80;99.90
25949;DHT22;13961;51.178;4.448;2024-02-14T15:18:01;13.80;99.90
25949;DHT22;13961;51.178;4.448;2024-02-14T15:20:26;13.70;99.90
25949;DHT22;13961;51.178;4.448;2024-02-14T15:22:52;13.60;99.90
25949;DHT22;13961;51.178;4.448;2024-02-14T15:25:17;13.60;99.90